createdAt,value
2019-03-20T00:01:13.599Z,3.97
2019-03-20T00:03:40.069Z,4.20
2019-03-20T00:06:06.215Z,4.10
2019-03-20T00:08:32.254Z,3.87
2019-03-20T00:10:58.304Z,3.90
2019-03-20T00:13:24.401Z,4.70
2019-03-20T00:15:50.522Z,4.40
2019-03-20T00:18:16.653Z,4.80
2019-03-20T00:20:42.819Z,5.93
2019-03-20T00:23:08.857Z,6.83
2019-03-20T00:25:34.953Z,4.43
2019-03-20T00:28:01.090Z,4.20
2019-03-20T00:30:27.240Z,4.67
2019-03-20T00:32:53.413Z,4.00
2019-03-20T00:35:19.457Z,4.73
2019-03-20T00:37:45.674Z,5.53
2019-03-20T00:40:15.935Z,5.33
2019-03-20T00:42:42.211Z,4.27
2019-03-20T00:45:19.465Z,4.77
2019-03-20T00:47:45.513Z,3.50
2019-03-20T00:50:17.506Z,3.80
2019-03-20T00:52:44.755Z,3.13
2019-03-20T00:55:12.480Z,4.80
2019-03-20T00:57:38.872Z,3.90
2019-03-20T01:00:08.857Z,4.17
2019-03-20T01:02:34.907Z,3.10
2019-03-20T01:05:12.168Z,3.60
2019-03-20T01:07:30.866Z,4.80
2019-03-20T01:09:57.112Z,4.00
2019-03-20T01:12:23.270Z,3.03
2019-03-20T01:14:49.540Z,2.80
2019-03-20T01:17:15.733Z,4.07
2019-03-20T01:19:41.853Z,3.10
2019-03-20T01:22:08.058Z,3.10
2019-03-20T01:24:34.280Z,3.70
2019-03-20T01:27:00.450Z,3.83
2019-03-20T01:29:26.499Z,3.50
2019-03-20T01:31:52.708Z,3.00
2019-03-20T01:34:18.743Z,2.67
2019-03-20T01:36:44.875Z,2.63
2019-03-20T01:39:11.002Z,3.47
2019-03-20T01:41:38.148Z,3.17
2019-03-20T01:44:04.687Z,3.40
2019-03-20T01:46:30.827Z,3.20
2019-03-20T01:48:57.125Z,3.47
2019-03-20T01:51:23.172Z,2.70
2019-03-20T01:53:49.251Z,2.93
2019-03-20T01:56:15.404Z,3.53
2019-03-20T01:58:41.584Z,3.13
2019-03-20T02:01:07.716Z,3.07
2019-03-20T02:03:33.732Z,2.97
2019-03-20T02:05:59.785Z,3.70
2019-03-20T02:08:25.951Z,2.37
2019-03-20T02:10:52.074Z,3.60
2019-03-20T02:13:18.165Z,3.20
2019-03-20T02:16:07.507Z,2.70
2019-03-20T02:18:33.774Z,4.00
2019-03-20T02:21:00.037Z,3.20
2019-03-20T02:23:26.160Z,3.77
2019-03-20T02:25:52.263Z,3.60
2019-03-20T02:28:18.432Z,3.50
2019-03-20T02:30:44.470Z,3.00
2019-03-20T02:33:10.650Z,3.50
2019-03-20T02:35:50.708Z,3.00
2019-03-20T02:38:06.724Z,3.03
2019-03-20T02:40:32.866Z,3.27
2019-03-20T02:42:59.151Z,3.43
2019-03-20T02:45:25.199Z,3.77
2019-03-20T02:47:51.646Z,4.40
2019-03-20T02:50:17.783Z,3.83
2019-03-20T02:52:43.817Z,4.00
2019-03-20T02:55:10.983Z,3.57
2019-03-20T02:57:37.657Z,4.40
2019-03-20T03:00:07.338Z,3.93
2019-03-20T03:02:33.512Z,3.93
2019-03-20T03:04:59.601Z,3.80
2019-03-20T03:07:25.720Z,2.90
2019-03-20T03:09:51.890Z,3.77
2019-03-20T03:12:17.929Z,3.90
2019-03-20T03:14:44.131Z,3.67
2019-03-20T03:17:10.536Z,4.17
2019-03-20T03:19:36.673Z,3.50
2019-03-20T03:22:02.988Z,3.93
2019-03-20T03:24:29.056Z,3.97
2019-03-20T03:26:55.116Z,3.80
2019-03-20T03:29:21.164Z,3.90
2019-03-20T03:31:47.330Z,4.00
2019-03-20T03:34:13.538Z,3.37
2019-03-20T03:36:39.651Z,3.47
2019-03-20T03:39:05.952Z,4.13
2019-03-20T03:41:31.999Z,4.10
2019-03-20T03:43:58.235Z,3.20
2019-03-20T03:46:24.296Z,3.10
2019-03-20T03:48:50.347Z,3.00
2019-03-20T03:51:16.475Z,3.17
2019-03-20T03:53:42.544Z,3.13
2019-03-20T03:56:09.035Z,3.53
2019-03-20T03:58:35.092Z,4.00
2019-03-20T04:01:01.127Z,3.07
2019-03-20T04:03:27.313Z,3.27
2019-03-20T04:05:53.468Z,2.87
2019-03-20T04:08:19.597Z,2.50
2019-03-20T04:10:45.729Z,2.97
2019-03-20T04:13:11.853Z,3.47
2019-03-20T04:15:37.941Z,3.67
2019-03-20T04:18:04.520Z,2.90
2019-03-20T04:20:30.677Z,3.27
2019-03-20T04:22:56.896Z,3.40
2019-03-20T04:25:23.058Z,3.03
2019-03-20T04:27:49.195Z,3.37
2019-03-20T04:30:16.931Z,3.00
2019-03-20T04:32:43.189Z,3.30
2019-03-20T04:35:09.527Z,3.20
2019-03-20T04:37:35.674Z,3.50
2019-03-20T04:40:03.681Z,2.90
2019-03-20T04:42:30.262Z,3.47
2019-03-20T04:44:56.642Z,3.13
2019-03-20T04:47:22.697Z,3.10
2019-03-20T04:49:48.835Z,3.97
2019-03-20T04:52:14.949Z,3.53
2019-03-20T04:54:41.147Z,2.87
2019-03-20T04:57:07.242Z,3.10
2019-03-20T04:59:34.290Z,2.87
2019-03-20T05:02:00.417Z,2.80
2019-03-20T05:04:26.625Z,2.07
2019-03-20T05:06:58.837Z,3.03
2019-03-20T05:09:21.002Z,3.43
2019-03-20T05:11:48.413Z,3.23
2019-03-20T05:14:14.531Z,3.87
2019-03-20T05:16:40.760Z,3.00
2019-03-20T05:19:07.207Z,3.30
2019-03-20T05:21:33.282Z,3.03
2019-03-20T05:23:59.959Z,3.10
2019-03-20T05:26:26.147Z,2.60
2019-03-20T05:28:52.318Z,3.27
2019-03-20T05:31:18.680Z,3.53
2019-03-20T05:33:44.749Z,2.80
2019-03-20T05:36:10.932Z,3.33
2019-03-20T05:38:37.167Z,3.00
2019-03-20T05:41:03.311Z,3.40
2019-03-20T05:43:29.810Z,3.17
2019-03-20T05:45:55.960Z,3.90
2019-03-20T05:48:22.075Z,3.10
2019-03-20T05:50:48.243Z,3.20
2019-03-20T05:53:14.455Z,2.67
2019-03-20T05:55:40.659Z,2.63
2019-03-20T05:58:06.784Z,3.00
2019-03-20T06:00:34.820Z,3.33
2019-03-20T06:03:01.111Z,2.73
2019-03-20T06:05:27.322Z,2.70
2019-03-20T06:07:53.524Z,2.93
2019-03-20T06:10:19.745Z,3.20
2019-03-20T06:12:45.942Z,2.83
2019-03-20T06:15:13.394Z,4.03
2019-03-20T06:17:39.670Z,2.67
2019-03-20T06:20:11.180Z,3.00
2019-03-20T06:22:37.656Z,3.33
2019-03-20T06:25:06.333Z,3.67
2019-03-20T06:27:32.388Z,3.40
2019-03-20T06:30:00.371Z,4.13
2019-03-20T06:32:28.161Z,3.63
2019-03-20T06:34:54.284Z,3.70
2019-03-20T06:37:20.406Z,4.70
2019-03-20T06:39:46.853Z,4.03
2019-03-20T06:42:13.009Z,3.97
2019-03-20T06:44:39.446Z,3.70
2019-03-20T06:47:05.726Z,4.40
2019-03-20T06:49:32.010Z,3.60
2019-03-20T06:51:58.184Z,4.67
2019-03-20T06:54:25.106Z,4.43
2019-03-20T06:56:51.613Z,4.70
2019-03-20T06:59:37.359Z,4.13
2019-03-20T07:02:05.402Z,4.20
2019-03-20T07:04:53.850Z,4.27
2019-03-20T07:07:23.870Z,4.73
2019-03-20T07:10:13.962Z,4.93
2019-03-20T07:12:40.100Z,3.60
2019-03-20T07:15:06.249Z,6.07
2019-03-20T07:17:32.385Z,4.83
2019-03-20T07:19:59.038Z,5.40
2019-03-20T07:22:26.404Z,6.17
2019-03-20T07:24:52.660Z,5.53
2019-03-20T07:27:18.848Z,7.10
2019-03-20T07:29:46.935Z,5.87
2019-03-20T07:32:14.415Z,5.83
2019-03-20T07:34:40.801Z,6.23
2019-03-20T07:37:07.081Z,7.03
2019-03-20T07:39:33.667Z,6.40
2019-03-20T07:41:59.817Z,6.27
2019-03-20T07:44:26.003Z,6.30
2019-03-20T07:46:52.166Z,7.20
2019-03-20T07:49:18.456Z,6.13
2019-03-20T07:51:44.550Z,6.00
2019-03-20T07:54:10.752Z,7.13
2019-03-20T07:56:36.948Z,6.90
2019-03-20T07:59:03.152Z,8.27
2019-03-20T08:01:29.306Z,7.30
2019-03-20T08:03:55.319Z,8.23
2019-03-20T08:06:21.415Z,8.80
2019-03-20T08:08:47.451Z,8.90
2019-03-20T08:11:13.573Z,10.40
2019-03-20T08:13:39.927Z,10.87
2019-03-20T08:16:06.124Z,10.17
2019-03-20T08:18:33.224Z,10.87
2019-03-20T08:20:59.295Z,10.70
2019-03-20T08:23:25.498Z,10.40
2019-03-20T08:25:51.834Z,10.73
2019-03-20T08:28:18.017Z,11.70
2019-03-20T08:30:44.251Z,12.03
2019-03-20T08:33:10.305Z,12.27
2019-03-20T08:35:36.488Z,11.07
2019-03-20T08:38:03.431Z,11.13
2019-03-20T08:40:29.899Z,11.80
2019-03-20T08:42:56.035Z,12.77
2019-03-20T08:45:22.279Z,12.73
2019-03-20T08:47:48.330Z,12.50
2019-03-20T08:50:19.583Z,13.07
2019-03-20T08:52:46.139Z,13.80
2019-03-20T08:55:16.435Z,13.73
2019-03-20T08:57:42.463Z,13.20
2019-03-20T09:00:12.097Z,14.90
2019-03-20T09:02:38.629Z,13.47
2019-03-20T09:05:07.725Z,14.37
2019-03-20T09:07:33.753Z,14.13
2019-03-20T09:09:59.857Z,13.40
2019-03-20T09:12:26.042Z,14.73
2019-03-20T09:14:52.309Z,14.07
2019-03-20T09:17:18.680Z,14.47
2019-03-20T09:19:44.871Z,12.40
2019-03-20T09:22:10.961Z,14.10
2019-03-20T09:24:37.457Z,14.40
2019-03-20T09:27:03.618Z,13.40
2019-03-20T09:29:36.171Z,13.07
2019-03-20T09:31:58.171Z,13.40
2019-03-20T09:34:24.234Z,14.80
2019-03-20T09:36:50.395Z,14.60
2019-03-20T09:39:16.588Z,15.20
2019-03-20T09:41:42.880Z,15.77
2019-03-20T09:44:09.307Z,13.63
2019-03-20T09:46:35.406Z,14.27
2019-03-20T09:49:02.480Z,14.70
2019-03-20T09:54:39.813Z,14.30
2019-03-20T09:57:05.889Z,16.07
2019-03-20T09:59:31.914Z,16.60
2019-03-20T10:01:58.040Z,16.30
2019-03-20T10:04:24.088Z,16.73
2019-03-20T10:06:50.216Z,16.80
2019-03-20T10:09:16.446Z,16.33
2019-03-20T10:11:42.599Z,16.33
2019-03-20T10:14:08.614Z,17.47
2019-03-20T10:16:34.797Z,16.90
2019-03-20T10:19:00.826Z,16.43
2019-03-20T10:21:27.359Z,17.03
2019-03-20T10:23:53.404Z,17.07
2019-03-20T10:26:19.535Z,17.10
2019-03-20T10:28:45.602Z,17.17
2019-03-20T10:31:11.755Z,18.50
2019-03-20T10:33:37.807Z,18.73
2019-03-20T10:36:03.849Z,19.20
2019-03-20T10:38:29.903Z,18.53
2019-03-20T10:40:56.103Z,19.53
2019-03-20T10:43:22.562Z,19.97
2019-03-20T10:45:48.672Z,18.60
2019-03-20T10:48:14.791Z,19.10
2019-03-20T10:50:40.902Z,19.80
2019-03-20T10:53:07.022Z,20.07
2019-03-20T10:55:33.138Z,20.67
2019-03-20T10:57:59.259Z,21.17
2019-03-20T11:00:26.345Z,20.63
2019-03-20T11:02:52.476Z,20.07
2019-03-20T11:05:20.629Z,20.20
2019-03-20T11:07:47.086Z,21.23
2019-03-20T11:10:19.763Z,19.83
2019-03-20T11:12:45.900Z,22.13
2019-03-20T11:15:15.146Z,20.80
2019-03-20T11:17:41.391Z,22.73
2019-03-20T11:20:10.275Z,21.80
2019-03-20T11:22:36.503Z,20.10
2019-03-20T11:25:05.875Z,21.37
2019-03-20T11:27:33.577Z,22.30
2019-03-20T11:29:59.807Z,21.97
2019-03-20T11:32:25.958Z,22.57
2019-03-20T11:34:52.021Z,23.50
2019-03-20T11:37:18.280Z,23.73
2019-03-20T11:39:44.397Z,23.07
2019-03-20T11:42:10.483Z,23.50
2019-03-20T11:44:36.512Z,23.70
2019-03-20T11:47:02.652Z,23.83
2019-03-20T11:49:29.089Z,25.83
2019-03-20T11:51:55.130Z,22.90
2019-03-20T11:54:21.441Z,26.57
2019-03-20T11:56:47.517Z,24.67
2019-03-20T11:59:13.758Z,23.50
2019-03-20T12:01:39.884Z,22.33
2019-03-20T12:04:06.106Z,23.60
2019-03-20T12:06:32.191Z,22.00
2019-03-20T12:08:58.216Z,26.10
2019-03-20T12:11:24.317Z,23.50
2019-03-20T12:13:50.366Z,24.00
2019-03-20T12:16:16.439Z,25.27
2019-03-20T12:18:42.478Z,26.10
2019-03-20T12:21:08.600Z,23.70
2019-03-20T12:23:34.879Z,26.67
2019-03-20T12:26:02.364Z,24.07
2019-03-20T12:28:28.499Z,25.53
2019-03-20T12:30:54.634Z,25.87
2019-03-20T12:33:20.747Z,24.23
2019-03-20T12:35:48.272Z,24.80
2019-03-20T12:38:15.407Z,23.50
2019-03-20T12:40:42.464Z,25.27
2019-03-20T12:43:08.494Z,24.60
2019-03-20T12:45:35.619Z,25.30
2019-03-20T12:48:02.309Z,25.83
2019-03-20T12:50:28.881Z,22.77
2019-03-20T12:52:55.046Z,24.30
2019-03-20T12:55:21.203Z,22.43
2019-03-20T12:57:47.273Z,27.30
2019-03-20T13:00:18.265Z,24.40
2019-03-20T13:02:44.521Z,24.23
2019-03-20T13:05:12.958Z,24.60
2019-03-20T13:07:39.182Z,22.93
2019-03-20T13:10:08.508Z,22.80
2019-03-20T13:12:34.737Z,24.23
2019-03-20T13:15:02.088Z,23.47
2019-03-20T13:17:28.259Z,24.97
2019-03-20T13:19:54.422Z,22.90
2019-03-20T13:22:20.573Z,22.67
2019-03-20T13:24:46.696Z,21.73
2019-03-20T13:27:12.901Z,24.00
2019-03-20T13:29:38.985Z,23.70
2019-03-20T13:32:05.387Z,24.27
2019-03-20T13:34:31.467Z,22.80
2019-03-20T13:36:57.514Z,21.23
2019-03-20T13:39:23.660Z,22.93
2019-03-20T13:41:49.835Z,23.87
2019-03-20T13:44:15.868Z,24.30
2019-03-20T13:46:41.939Z,24.13
2019-03-20T13:49:09.113Z,23.10
2019-03-20T13:51:35.294Z,23.77
2019-03-20T13:54:01.763Z,24.27
2019-03-20T13:56:27.881Z,25.00
2019-03-20T13:58:54.497Z,23.77
2019-03-20T14:01:20.715Z,22.53
2019-03-20T14:03:46.932Z,25.03
2019-03-20T14:06:13.074Z,25.40
2019-03-20T14:08:39.225Z,22.70
2019-03-20T14:11:05.414Z,23.10
2019-03-20T14:13:31.563Z,24.10
2019-03-20T14:15:57.778Z,24.50
2019-03-20T14:18:23.874Z,23.40
2019-03-20T14:20:49.957Z,25.57
2019-03-20T14:23:16.108Z,23.57
2019-03-20T14:25:42.128Z,23.63
2019-03-20T14:28:08.807Z,24.00
2019-03-20T14:30:35.096Z,23.90
2019-03-20T14:33:01.276Z,23.90
2019-03-20T14:35:27.498Z,24.10
2019-03-20T14:37:53.698Z,24.40
2019-03-20T14:40:37.431Z,23.43
2019-03-20T14:42:58.133Z,25.43
2019-03-20T14:45:24.444Z,25.37
2019-03-20T14:47:50.953Z,23.87
2019-03-20T14:50:19.378Z,23.87
2019-03-20T14:52:45.400Z,22.33
2019-03-20T14:58:46.817Z,24.43
2019-03-20T15:01:12.922Z,24.50
2019-03-20T15:03:39.102Z,25.33
2019-03-20T15:06:06.231Z,27.63
2019-03-20T15:08:32.360Z,24.33
2019-03-20T15:10:58.513Z,25.60
2019-03-20T15:13:24.671Z,25.87
2019-03-20T15:16:08.834Z,25.20
2019-03-20T15:18:34.903Z,27.10
2019-03-20T15:21:01.224Z,26.53
2019-03-20T15:23:29.337Z,26.50
2019-03-20T15:25:55.516Z,28.70
2019-03-20T15:28:22.859Z,26.40
2019-03-20T15:30:49.123Z,27.37
2019-03-20T15:33:15.247Z,29.37
2019-03-20T15:35:41.316Z,26.30
2019-03-20T15:38:07.459Z,27.23
2019-03-20T15:40:33.590Z,29.63
2019-03-20T15:42:59.923Z,26.17
2019-03-20T15:45:26.051Z,28.60
2019-03-20T15:47:52.215Z,26.97
2019-03-20T15:50:19.628Z,28.37
2019-03-20T15:52:47.642Z,28.17
2019-03-20T15:55:37.408Z,29.20
2019-03-20T15:58:03.793Z,31.60
2019-03-20T16:00:31.976Z,29.90
2019-03-20T16:03:01.989Z,30.03
2019-03-20T16:05:28.130Z,30.77
2019-03-20T16:07:54.645Z,31.50
2019-03-20T16:10:21.933Z,28.93
2019-03-20T16:12:47.987Z,31.63
2019-03-20T16:15:19.693Z,33.17
2019-03-20T16:17:45.856Z,34.77
2019-03-20T16:20:12.853Z,31.43
2019-03-20T16:22:40.720Z,33.80
2019-03-20T16:25:24.016Z,34.40
2019-03-20T16:27:50.071Z,33.40
2019-03-20T16:30:22.757Z,34.60
2019-03-20T16:32:49.056Z,34.27
2019-03-20T16:35:15.179Z,34.87
2019-03-20T16:37:41.344Z,37.57
2019-03-20T16:40:10.911Z,37.53
2019-03-20T16:42:37.124Z,34.00
2019-03-20T16:45:10.023Z,35.43
2019-03-20T16:47:36.076Z,35.87
2019-03-20T16:50:05.874Z,34.90
2019-03-20T16:52:32.042Z,33.40
2019-03-20T16:54:58.390Z,34.73
2019-03-20T16:57:24.570Z,33.87
2019-03-20T16:59:50.614Z,34.17
2019-03-20T17:02:16.974Z,34.07
2019-03-20T17:04:43.157Z,34.90
2019-03-20T17:07:09.186Z,35.57
2019-03-20T17:09:35.312Z,35.60
2019-03-20T17:12:01.745Z,38.20
2019-03-20T17:14:27.901Z,37.57
2019-03-20T17:16:53.966Z,38.03
2019-03-20T17:19:20.093Z,37.60
2019-03-20T17:21:46.178Z,36.20
2019-03-20T17:24:12.329Z,36.87
2019-03-20T17:26:38.456Z,34.83
2019-03-20T17:29:09.212Z,35.07
2019-03-20T17:31:34.807Z,36.77
2019-03-20T17:34:00.934Z,35.87
2019-03-20T17:36:26.998Z,34.80
2019-03-20T17:38:53.155Z,37.13
2019-03-20T17:41:19.723Z,37.10
2019-03-20T17:43:45.744Z,36.60
2019-03-20T17:46:11.901Z,36.37
2019-03-20T17:48:38.137Z,34.20
2019-03-20T17:51:04.305Z,33.07
2019-03-20T17:53:30.776Z,32.80
2019-03-20T17:55:56.919Z,34.40
2019-03-20T17:58:22.951Z,35.13
2019-03-20T18:00:51.201Z,35.67
2019-03-20T18:03:17.350Z,35.30
2019-03-20T18:05:43.491Z,34.80
2019-03-20T18:08:09.808Z,35.57
2019-03-20T18:10:36.233Z,35.93
2019-03-20T18:13:05.705Z,37.50
2019-03-20T18:15:31.820Z,35.73
2019-03-20T18:17:58.009Z,35.77
2019-03-20T18:20:24.618Z,36.17
2019-03-20T18:22:50.809Z,33.90
2019-03-20T18:25:17.014Z,36.47
2019-03-20T18:27:43.111Z,33.97
2019-03-20T18:30:21.526Z,36.70
2019-03-20T18:32:47.954Z,36.00
2019-03-20T18:35:14.427Z,36.33
2019-03-20T18:37:40.608Z,35.23
2019-03-20T18:40:18.634Z,32.83
2019-03-20T18:42:44.687Z,34.87
2019-03-20T18:45:13.740Z,35.53
2019-03-20T18:47:39.971Z,34.27
2019-03-20T18:50:07.718Z,32.90
2019-03-20T18:52:33.758Z,35.47
2019-03-20T18:55:00.452Z,35.47
2019-03-20T18:57:26.673Z,32.80
2019-03-20T18:59:52.753Z,33.50
2019-03-20T19:02:18.885Z,33.07
2019-03-20T19:04:44.927Z,35.57
2019-03-20T19:07:11.133Z,32.93
2019-03-20T19:09:37.260Z,34.07
2019-03-20T19:12:08.539Z,34.53
2019-03-20T19:14:31.443Z,33.70
2019-03-20T19:16:57.518Z,32.73
2019-03-20T19:19:23.620Z,35.07
2019-03-20T19:21:49.778Z,30.93
2019-03-20T19:24:15.907Z,33.50
2019-03-20T19:26:42.105Z,32.83
2019-03-20T19:29:09.071Z,31.37
2019-03-20T19:31:35.268Z,32.23
2019-03-20T19:34:01.292Z,29.40
2019-03-20T19:36:27.317Z,31.00
2019-03-20T19:38:53.709Z,32.27
2019-03-20T19:41:19.768Z,31.93
2019-03-20T19:43:46.027Z,32.70
2019-03-20T19:46:12.467Z,29.63
2019-03-20T19:48:38.567Z,30.97
2019-03-20T19:51:04.921Z,30.17
2019-03-20T19:53:31.128Z,30.90
2019-03-20T19:55:57.317Z,29.17
2019-03-20T19:58:23.470Z,30.90
2019-03-20T20:00:49.872Z,30.00
2019-03-20T20:03:16.000Z,30.67
2019-03-20T20:05:42.440Z,27.83
2019-03-20T20:08:08.483Z,28.53
2019-03-20T20:10:34.614Z,27.40
2019-03-20T20:13:00.668Z,28.63
2019-03-20T20:15:32.048Z,28.90
2019-03-20T20:17:58.216Z,29.43
2019-03-20T20:20:32.224Z,28.10
2019-03-20T20:22:58.300Z,28.53
2019-03-20T20:25:24.443Z,28.50
2019-03-20T20:27:50.748Z,29.13
2019-03-20T20:30:17.723Z,28.10
2019-03-20T20:32:43.779Z,31.30
2019-03-20T20:35:11.344Z,31.27
2019-03-20T20:37:37.581Z,31.90
2019-03-20T20:40:07.790Z,29.83
2019-03-20T20:42:42.542Z,32.53
2019-03-20T20:45:02.304Z,33.50
2019-03-20T20:47:28.435Z,33.00
2019-03-20T20:49:54.503Z,32.93
2019-03-20T20:52:20.739Z,33.30
2019-03-20T20:54:46.937Z,35.30
2019-03-20T20:57:12.955Z,33.73
2019-03-20T20:59:39.585Z,32.50
2019-03-20T21:02:05.902Z,34.20
2019-03-20T21:04:32.030Z,34.07
2019-03-20T21:06:58.302Z,34.20
2019-03-20T21:09:24.458Z,33.63
2019-03-20T21:11:50.515Z,33.90
2019-03-20T21:14:16.741Z,32.77
2019-03-20T21:16:42.795Z,36.70
2019-03-20T21:19:33.282Z,30.90
2019-03-20T21:22:20.176Z,32.37
2019-03-20T21:24:46.221Z,33.97
2019-03-20T21:27:30.858Z,34.20
2019-03-20T21:30:18.528Z,29.40
2019-03-20T21:32:53.735Z,32.37
2019-03-20T21:35:41.641Z,29.07
2019-03-20T21:38:09.197Z,29.77
2019-03-20T21:40:57.912Z,31.73
2019-03-20T21:43:57.667Z,30.50
2019-03-20T21:47:00.900Z,29.93
2019-03-20T21:49:26.927Z,28.83
2019-03-20T21:51:53.071Z,28.43
2019-03-20T21:54:32.618Z,27.00
2019-03-20T21:57:07.932Z,27.53
2019-03-20T21:59:46.445Z,28.93
2019-03-20T22:02:41.166Z,30.03
2019-03-20T22:05:22.826Z,27.87
2019-03-20T22:07:41.803Z,29.83
2019-03-20T22:10:27.074Z,27.20
2019-03-20T22:13:18.041Z,25.90
2019-03-20T22:16:03.873Z,26.23
2019-03-20T22:18:50.372Z,26.57
2019-03-20T22:21:23.214Z,26.60
2019-03-20T22:24:16.249Z,28.30
2019-03-20T22:27:06.145Z,31.10
2019-03-20T22:29:32.231Z,29.23
2019-03-20T22:32:17.397Z,29.47
2019-03-20T22:35:08.617Z,28.50
2019-03-20T22:37:34.691Z,28.30
2019-03-20T22:40:16.638Z,27.90
2019-03-20T22:42:58.630Z,27.07
2019-03-20T22:46:02.341Z,28.53
2019-03-20T22:48:38.259Z,26.03
2019-03-20T22:51:26.512Z,25.47
2019-03-20T22:54:25.807Z,22.90
2019-03-20T22:57:07.867Z,22.50
2019-03-20T22:59:33.974Z,20.97
2019-03-20T23:02:15.967Z,20.67
2019-03-20T23:04:45.655Z,20.40
2019-03-20T23:07:11.807Z,20.87
2019-03-20T23:09:38.036Z,21.33
2019-03-20T23:12:07.139Z,20.90
2019-03-20T23:14:33.494Z,22.40
2019-03-20T23:16:59.536Z,24.43
2019-03-20T23:19:25.985Z,22.87
2019-03-20T23:21:52.171Z,25.33
2019-03-20T23:24:18.183Z,27.20
2019-03-20T23:26:45.838Z,27.73
2019-03-20T23:29:11.874Z,27.10
2019-03-20T23:31:38.142Z,24.27
2019-03-20T23:34:04.291Z,25.30
2019-03-20T23:36:30.387Z,26.87
2019-03-20T23:38:56.426Z,25.10
2019-03-20T23:41:22.559Z,23.83
2019-03-20T23:43:53.235Z,20.90
2019-03-20T23:46:17.709Z,21.33
2019-03-20T23:48:53.482Z,21.63
2019-03-20T23:51:22.829Z,19.80
2019-03-20T23:53:51.383Z,18.23
2019-03-20T23:56:17.886Z,18.47
2019-03-20T23:58:44.011Z,18.47
